Time;durP1;ratioP1;P1;durP2;ratioP2;P2;SDS_P1;SDS_P2;PMS_P1;PMS_P2;Temp;Humidity;BMP_temperature;BMP_pressure;BME280_temperature;BME280_humidity;BME280_pressure;Samples;Min_cycle;Max_cycle;Signal;HPM_P1;HPM_P2
2022/02/17 00:00:41;;;;;;;0.10;0.00;;;;;;;;;;4996033;28;20038;-87
2022/02/17 01:27:33;;;;;;;;;;;;;;;;;;;;;
2022/02/17 01:43:33;;;;;;;;;;;;;;;;;;;;;
2022/02/17 02:39:28;;;;;;;0.00;0.00;;;;;;;;;;4973405;28;20178;-87
2022/02/17 02:42:17;;;;;;;0.10;0.00;;;;;;;;;;4976244;28;20041;-87
2022/02/17 02:45:07;;;;;;;0.00;0.00;;;;;;;;;;4952114;28;20086;-87
2022/02/17 02:48:12;;;;;;;0.30;0.00;;;;;;;;;;4954510;29;20102;-87
2022/02/17 02:50:56;;;;;;;0.00;0.00;;;;;;;;;;4948951;28;20038;-87
2022/02/17 02:53:37;;;;;;;0.00;0.00;;;;;;;;;;5023873;23;20038;-86
2022/02/17 02:56:22;;;;;;;0.10;0.00;;;;;;;;;;4972281;28;20065;-86
2022/02/17 02:59:10;;;;;;;0.00;0.00;;;;;;;;;;4972228;28;20026;-86
2022/02/17 03:01:43;;;;;;;0.13;0.00;;;;;;;;;;4981384;28;20101;-88
2022/02/17 03:07:47;;;;;;;;;;;;;;;;;;;;;
2022/02/17 03:16:27;;;;;;;0.20;0.03;;;;;;;;;;4967063;28;20050;-86
2022/02/17 04:04:39;;;;;;;0.00;0.00;;;;;;;;;;1414942;26;20834;-85
2022/02/17 04:07:14;;;;;;;0.10;0.00;;;;;;;;;;4924638;29;20068;-85
2022/02/17 04:09:48;;;;;;;0.00;0.00;;;;;;;;;;4908209;29;20087;-85
2022/02/17 04:12:20;;;;;;;0.08;0.00;;;;;;;;;;4927428;29;20040;-85
2022/02/17 04:15:12;;;;;;;;;;;;;;;;;;;;;
2022/02/17 04:32:32;;;;;;;;;;;;;;;;;;;;;
2022/02/17 04:35:32;;;;;;;;;;;;;;;;;;;;;
2022/02/17 04:44:17;;;;;;;0.00;0.00;;;;;;;;;;4879883;29;20008;-89
2022/02/17 05:32:02;;;;;;;0.10;0.00;;;;;;;;;;4973059;28;20047;-85
2022/02/17 05:34:48;;;;;;;0.52;0.10;;;;;;;;;;4975946;28;20027;-85
2022/02/17 05:37:27;;;;;;;0.10;0.00;;;;;;;;;;4979624;28;20033;-86
2022/02/17 05:40:19;;;;;;;1.75;0.10;;;;;;;;;;4972006;28;20046;-86
2022/02/17 05:42:54;;;;;;;0.10;0.00;;;;;;;;;;4975724;28;21237;-85
2022/02/17 05:45:25;;;;;;;0.05;0.00;;;;;;;;;;4976727;28;20110;-86
2022/02/17 05:47:53;;;;;;;0.00;0.00;;;;;;;;;;4975968;28;20030;-85
2022/02/17 05:57:25;;;;;;;0.15;0.00;;;;;;;;;;4931302;29;20450;-86
2022/02/17 05:59:51;;;;;;;1.65;0.13;;;;;;;;;;4944055;28;20045;-86
2022/02/17 06:15:17;;;;;;;1.08;0.10;;;;;;;;;;4988220;28;20061;-91
2022/02/17 06:17:43;;;;;;;0.17;0.10;;;;;;;;;;4986474;28;20054;-84
2022/02/17 06:20:09;;;;;;;1.27;0.17;;;;;;;;;;4977066;28;20034;-83
2022/02/17 06:22:48;;;;;;;1.55;0.10;;;;;;;;;;4979550;28;20037;-85
2022/02/17 06:25:16;;;;;;;1.13;0.20;;;;;;;;;;4976889;28;20030;-88
2022/02/17 06:27:42;;;;;;;1.67;0.20;;;;;;;;;;4982650;28;20117;-85
2022/02/17 06:30:08;;;;;;;0.88;0.30;;;;;;;;;;4980728;28;20053;-85
2022/02/17 06:32:34;;;;;;;0.43;0.10;;;;;;;;;;4989142;28;20026;-87
2022/02/17 06:35:00;;;;;;;0.80;0.30;;;;;;;;;;4978796;28;20022;-85
2022/02/17 06:37:26;;;;;;;1.10;0.38;;;;;;;;;;4982161;28;20022;-89
2022/02/17 06:39:52;;;;;;;0.87;0.23;;;;;;;;;;4986911;28;20487;-86
2022/02/17 06:42:19;;;;;;;0.20;0.10;;;;;;;;;;4972729;28;20041;-88
2022/02/17 06:44:45;;;;;;;3.63;0.20;;;;;;;;;;4976880;28;20402;-88
2022/02/17 06:47:11;;;;;;;2.08;0.17;;;;;;;;;;4978284;28;20023;-87
2022/02/17 06:49:37;;;;;;;1.07;0.10;;;;;;;;;;4995149;28;20023;-87
2022/02/17 06:52:04;;;;;;;2.05;0.30;;;;;;;;;;4980475;28;20098;-87
2022/02/17 06:54:30;;;;;;;1.20;0.20;;;;;;;;;;4970627;28;20033;-87
2022/02/17 06:56:56;;;;;;;2.33;0.60;;;;;;;;;;4983778;28;20050;-87
2022/02/17 06:59:22;;;;;;;1.90;0.38;;;;;;;;;;4974657;28;20501;-87
2022/02/17 07:01:48;;;;;;;1.52;0.20;;;;;;;;;;4976269;28;20030;-88
2022/02/17 07:04:14;;;;;;;2.75;0.35;;;;;;;;;;4959436;28;20026;-87
2022/02/17 07:06:42;;;;;;;1.23;0.15;;;;;;;;;;4976533;28;20106;-88
2022/02/17 07:09:08;;;;;;;2.90;0.60;;;;;;;;;;4975531;28;20029;-88
2022/02/17 07:11:34;;;;;;;1.75;0.60;;;;;;;;;;4973932;28;20030;-89
2022/02/17 07:14:02;;;;;;;4.03;0.80;;;;;;;;;;4974800;28;20038;-88
2022/02/17 07:16:28;;;;;;;3.38;0.68;;;;;;;;;;4980913;28;20027;-88
2022/02/17 07:18:54;;;;;;;1.07;0.23;;;;;;;;;;4966769;28;20089;-88
2022/02/17 07:21:20;;;;;;;3.30;0.57;;;;;;;;;;4969594;28;20154;-88
2022/02/17 07:23:47;;;;;;;1.97;0.40;;;;;;;;;;4990296;28;20455;-88
2022/02/17 07:26:13;;;;;;;2.30;0.50;;;;;;;;;;4982815;28;20081;-87
2022/02/17 07:28:41;;;;;;;3.03;0.37;;;;;;;;;;4972027;28;20062;-88
2022/02/17 07:31:21;;;;;;;2.87;0.30;;;;;;;;;;4993206;28;20035;-87
2022/02/17 07:33:47;;;;;;;4.20;0.55;;;;;;;;;;4991496;28;20034;-88
2022/02/17 07:36:13;;;;;;;2.70;0.30;;;;;;;;;;4987139;28;20026;-88
2022/02/17 07:38:40;;;;;;;2.10;0.10;;;;;;;;;;4956429;28;20050;-88
2022/02/17 07:41:07;;;;;;;1.83;0.40;;;;;;;;;;4940789;28;20479;-88
2022/02/17 07:43:33;;;;;;;3.17;0.40;;;;;;;;;;4962833;28;20380;-89
2022/02/17 07:46:00;;;;;;;1.20;0.23;;;;;;;;;;4976885;28;20565;-89
2022/02/17 07:48:27;;;;;;;2.15;0.30;;;;;;;;;;4976719;28;20495;-89
2022/02/17 07:50:55;;;;;;;1.37;0.33;;;;;;;;;;4978075;28;20030;-89
2022/02/17 07:53:23;;;;;;;1.85;0.15;;;;;;;;;;4993188;28;20030;-89
2022/02/17 07:55:52;;;;;;;3.07;0.40;;;;;;;;;;4976018;28;20098;-88
2022/02/17 07:58:18;;;;;;;1.90;0.40;;;;;;;;;;4993492;28;20108;-88
2022/02/17 08:00:45;;;;;;;0.93;0.20;;;;;;;;;;4974967;28;20042;-89
2022/02/17 08:03:13;;;;;;;1.47;0.20;;;;;;;;;;4956280;28;20563;-89
2022/02/17 08:05:39;;;;;;;2.95;0.20;;;;;;;;;;4989121;28;20041;-89
2022/02/17 08:08:09;;;;;;;2.95;0.80;;;;;;;;;;4976533;28;20414;-89
2022/02/17 08:10:36;;;;;;;1.13;0.20;;;;;;;;;;4981411;28;20029;-89
2022/02/17 08:13:02;;;;;;;0.70;0.30;;;;;;;;;;4986783;28;20035;-89
2022/02/17 08:15:32;;;;;;;3.47;0.40;;;;;;;;;;4992677;28;20054;-89
2022/02/17 08:17:58;;;;;;;2.63;0.63;;;;;;;;;;4968515;28;20040;-89
2022/02/17 08:20:24;;;;;;;6.45;0.75;;;;;;;;;;4984132;28;20026;-88
2022/02/17 08:22:51;;;;;;;4.20;0.80;;;;;;;;;;4985254;28;20034;-88
2022/02/17 08:25:19;;;;;;;3.33;0.88;;;;;;;;;;4991977;28;20035;-88
2022/02/17 08:27:46;;;;;;;5.00;1.13;;;;;;;;;;4993712;28;20026;-88
2022/02/17 08:30:12;;;;;;;2.83;0.40;;;;;;;;;;4976988;28;20441;-87
2022/02/17 08:32:41;;;;;;;1.88;0.50;;;;;;;;;;4970760;28;20027;-88
2022/02/17 08:35:10;;;;;;;3.70;0.80;;;;;;;;;;4984969;28;20053;-87
2022/02/17 08:37:36;;;;;;;3.37;0.40;;;;;;;;;;4980298;28;20037;-86
2022/02/17 08:40:03;;;;;;;0.90;0.20;;;;;;;;;;4977864;28;20030;-87
2022/02/17 08:42:29;;;;;;;1.75;0.47;;;;;;;;;;4966114;28;20023;-88
2022/02/17 08:44:55;;;;;;;4.30;0.50;;;;;;;;;;4973032;28;20034;-87
2022/02/17 08:47:21;;;;;;;3.38;0.43;;;;;;;;;;4985282;28;20104;-87
2022/02/17 08:49:48;;;;;;;2.97;0.45;;;;;;;;;;4983097;28;20566;-87
2022/02/17 08:52:14;;;;;;;5.22;1.30;;;;;;;;;;4977503;28;20027;-87
2022/02/17 08:54:40;;;;;;;3.58;0.73;;;;;;;;;;4976436;28;20041;-87
2022/02/17 08:57:06;;;;;;;2.15;0.40;;;;;;;;;;4975808;28;20100;-87
2022/02/17 08:59:32;;;;;;;4.43;0.60;;;;;;;;;;4984492;28;20027;-87
2022/02/17 09:01:58;;;;;;;1.58;0.65;;;;;;;;;;4980133;28;20046;-87
2022/02/17 09:04:24;;;;;;;5.07;0.50;;;;;;;;;;4978572;28;20061;-87
2022/02/17 09:06:50;;;;;;;3.65;0.50;;;;;;;;;;4983755;28;20061;-86
2022/02/17 09:09:17;;;;;;;2.60;0.38;;;;;;;;;;4986614;28;20049;-87
2022/02/17 09:11:43;;;;;;;3.47;0.35;;;;;;;;;;4978492;28;20011;-87
2022/02/17 09:14:09;;;;;;;4.53;0.60;;;;;;;;;;4978226;28;20398;-87
2022/02/17 09:16:36;;;;;;;2.65;0.22;;;;;;;;;;4977035;28;20042;-87
2022/02/17 09:19:03;;;;;;;5.40;0.65;;;;;;;;;;4978525;28;20102;-88
2022/02/17 09:21:29;;;;;;;3.55;0.55;;;;;;;;;;4986941;28;20022;-87
2022/02/17 09:23:55;;;;;;;5.53;1.00;;;;;;;;;;4973785;28;20036;-86
2022/02/17 09:26:21;;;;;;;3.33;0.47;;;;;;;;;;4972782;28;20029;-86
2022/02/17 09:28:48;;;;;;;5.10;0.75;;;;;;;;;;4972394;28;20081;-87
2022/02/17 09:31:19;;;;;;;2.30;0.60;;;;;;;;;;4966062;28;20059;-85
2022/02/17 09:33:49;;;;;;;5.22;0.60;;;;;;;;;;4978215;28;20054;-86
2022/02/17 09:36:15;;;;;;;7.30;0.95;;;;;;;;;;4979514;28;20403;-86
2022/02/17 09:38:41;;;;;;;4.43;0.93;;;;;;;;;;4977075;28;20087;-86
2022/02/17 09:41:08;;;;;;;5.88;0.77;;;;;;;;;;4977311;28;20030;-88
2022/02/17 09:43:35;;;;;;;3.78;0.95;;;;;;;;;;4981053;28;20041;-87
2022/02/17 09:46:02;;;;;;;4.38;1.48;;;;;;;;;;4983353;28;20082;-85
2022/02/17 09:48:28;;;;;;;4.43;0.88;;;;;;;;;;4984396;28;20026;-85
2022/02/17 09:50:54;;;;;;;4.50;0.70;;;;;;;;;;4987347;28;20061;-86
2022/02/17 09:53:21;;;;;;;4.07;0.90;;;;;;;;;;4998410;28;20014;-86
2022/02/17 09:55:49;;;;;;;3.55;0.60;;;;;;;;;;4992657;28;20027;-87
2022/02/17 09:58:17;;;;;;;3.42;0.82;;;;;;;;;;4990344;28;20483;-86
2022/02/17 10:00:45;;;;;;;5.78;0.75;;;;;;;;;;4978563;28;20046;-87
2022/02/17 10:03:20;;;;;;;4.57;0.85;;;;;;;;;;4979023;28;20034;-86
2022/02/17 10:06:03;;;;;;;4.30;0.80;;;;;;;;;;4979035;28;20056;-86
2022/02/17 10:08:29;;;;;;;5.35;0.75;;;;;;;;;;4995576;28;20113;-87
2022/02/17 10:10:55;;;;;;;3.50;0.63;;;;;;;;;;4978225;28;20038;-87
2022/02/17 10:13:23;;;;;;;3.35;0.60;;;;;;;;;;4978532;28;20026;-87
2022/02/17 10:15:57;;;;;;;4.72;1.05;;;;;;;;;;4994544;28;20031;-88
2022/02/17 10:18:27;;;;;;;3.60;1.30;;;;;;;;;;4980810;28;20094;-88
2022/02/17 10:20:53;;;;;;;6.05;0.93;;;;;;;;;;5001338;28;20126;-87
2022/02/17 10:23:20;;;;;;;5.07;1.05;;;;;;;;;;5000507;28;20066;-87
2022/02/17 10:26:06;;;;;;;4.35;1.30;;;;;;;;;;4977370;28;20035;-87
2022/02/17 10:28:33;;;;;;;5.03;0.85;;;;;;;;;;4960484;28;20039;-87
2022/02/17 10:31:00;;;;;;;7.60;0.57;;;;;;;;;;4963095;28;20031;-87
2022/02/17 10:33:36;;;;;;;3.92;0.55;;;;;;;;;;4976832;28;20409;-86
2022/02/17 10:36:03;;;;;;;5.05;0.73;;;;;;;;;;4985305;28;20031;-87
2022/02/17 10:38:29;;;;;;;5.30;0.85;;;;;;;;;;4978357;28;20089;-88
2022/02/17 10:40:55;;;;;;;6.82;1.30;;;;;;;;;;4984240;28;20042;-86
2022/02/17 10:43:22;;;;;;;5.22;0.50;;;;;;;;;;4973362;28;20030;-87
2022/02/17 10:45:49;;;;;;;3.88;0.70;;;;;;;;;;4978635;28;20026;-86
2022/02/17 10:48:29;;;;;;;5.82;1.00;;;;;;;;;;4981919;28;20482;-87
2022/02/17 10:51:09;;;;;;;4.25;0.77;;;;;;;;;;4976191;28;20040;-87
2022/02/17 10:53:46;;;;;;;6.57;0.88;;;;;;;;;;4977402;28;20026;-88
2022/02/17 10:56:13;;;;;;;7.03;0.70;;;;;;;;;;4976625;28;20113;-88
2022/02/17 10:58:43;;;;;;;3.80;0.70;;;;;;;;;;4976465;28;20561;-87
2022/02/17 11:01:10;;;;;;;7.93;0.90;;;;;;;;;;4986691;28;20038;-87
2022/02/17 11:03:36;;;;;;;7.65;1.10;;;;;;;;;;4985789;28;20026;-87
2022/02/17 11:06:03;;;;;;;7.45;1.02;;;;;;;;;;4976151;28;20038;-88
2022/02/17 11:08:30;;;;;;;2.70;0.70;;;;;;;;;;4996356;28;20037;-88
2022/02/17 11:10:56;;;;;;;4.57;1.02;;;;;;;;;;4993261;28;20035;-88
2022/02/17 11:13:23;;;;;;;7.70;0.80;;;;;;;;;;4984127;28;20022;-87
2022/02/17 11:15:49;;;;;;;11.18;1.08;;;;;;;;;;4997803;28;20006;-86
2022/02/17 11:18:16;;;;;;;2.55;0.40;;;;;;;;;;4998978;28;20018;-86
2022/02/17 11:20:42;;;;;;;8.43;1.17;;;;;;;;;;4988561;28;20034;-87
2022/02/17 11:23:09;;;;;;;4.60;0.52;;;;;;;;;;4985651;28;20022;-87
2022/02/17 11:25:41;;;;;;;4.20;0.70;;;;;;;;;;4979161;28;20101;-87
2022/02/17 11:28:12;;;;;;;5.63;0.82;;;;;;;;;;4977656;28;20047;-88
2022/02/17 11:30:45;;;;;;;5.60;0.80;;;;;;;;;;4981996;28;20050;-88
2022/02/17 11:33:24;;;;;;;6.50;0.70;;;;;;;;;;4995416;28;20061;-88
2022/02/17 11:35:59;;;;;;;4.18;0.65;;;;;;;;;;4986522;28;20101;-87
2022/02/17 11:38:28;;;;;;;8.60;1.33;;;;;;;;;;4974836;28;20483;-87
2022/02/17 11:41:31;;;;;;;2.00;0.40;;;;;;;;;;4985439;28;20499;-88
2022/02/17 11:44:08;;;;;;;5.50;0.98;;;;;;;;;;4945982;28;20073;-87
2022/02/17 11:46:48;;;;;;;4.10;0.80;;;;;;;;;;4977691;28;20031;-86
2022/02/17 11:49:32;;;;;;;4.15;0.50;;;;;;;;;;4979492;28;20026;-87
2022/02/17 11:52:15;;;;;;;5.03;0.70;;;;;;;;;;4969810;28;20376;-87
2022/02/17 11:54:42;;;;;;;6.47;1.35;;;;;;;;;;4971335;28;20085;-87
2022/02/17 11:57:27;;;;;;;2.60;0.50;;;;;;;;;;4989107;28;20028;-87
2022/02/17 12:00:13;;;;;;;7.43;0.80;;;;;;;;;;4985918;28;20123;-88
2022/02/17 12:02:41;;;;;;;6.38;0.70;;;;;;;;;;4977354;28;20030;-87
2022/02/17 12:05:14;;;;;;;4.18;1.20;;;;;;;;;;4978985;28;20061;-88
2022/02/17 12:07:41;;;;;;;7.15;0.70;;;;;;;;;;4978106;28;20109;-88
2022/02/17 12:10:26;;;;;;;5.10;0.80;;;;;;;;;;4976175;28;20034;-88
2022/02/17 12:12:52;;;;;;;8.02;1.20;;;;;;;;;;4976492;28;20109;-87
2022/02/17 12:15:18;;;;;;;7.82;1.10;;;;;;;;;;4977189;28;20054;-86
2022/02/17 12:17:45;;;;;;;6.55;1.15;;;;;;;;;;4977079;28;20022;-86
2022/02/17 12:20:13;;;;;;;6.68;1.52;;;;;;;;;;4979721;28;20026;-87
2022/02/17 12:22:48;;;;;;;8.18;1.33;;;;;;;;;;4978281;28;20027;-86
2022/02/17 12:25:20;;;;;;;4.72;1.08;;;;;;;;;;4973960;28;20804;-86
2022/02/17 12:27:47;;;;;;;6.32;1.27;;;;;;;;;;4974170;28;20037;-86
2022/02/17 12:30:21;;;;;;;8.20;1.17;;;;;;;;;;4976705;28;20140;-85
2022/02/17 12:32:47;;;;;;;8.45;1.15;;;;;;;;;;4970121;28;20422;-85
2022/02/17 12:35:24;;;;;;;7.68;1.52;;;;;;;;;;4978071;28;20030;-86
2022/02/17 12:38:09;;;;;;;6.40;1.02;;;;;;;;;;4974860;28;20030;-86
2022/02/17 12:40:35;;;;;;;4.60;0.93;;;;;;;;;;4965340;28;20038;-86
2022/02/17 12:43:02;;;;;;;7.40;1.15;;;;;;;;;;4985416;28;20049;-87
2022/02/17 12:45:39;;;;;;;5.78;1.38;;;;;;;;;;4993425;28;20113;-87
2022/02/17 12:48:06;;;;;;;6.10;1.10;;;;;;;;;;4981461;28;20044;-87
2022/02/17 12:50:32;;;;;;;4.55;0.90;;;;;;;;;;4991638;28;20033;-87
2022/02/17 12:52:58;;;;;;;6.43;1.15;;;;;;;;;;4982281;28;20649;-87
2022/02/17 12:55:47;;;;;;;5.85;1.10;;;;;;;;;;4992144;28;20085;-87
2022/02/17 12:58:14;;;;;;;4.28;1.15;;;;;;;;;;4991753;28;20033;-87
2022/02/17 13:00:43;;;;;;;3.50;0.70;;;;;;;;;;4976014;28;20402;-88
2022/02/17 13:03:09;;;;;;;5.82;0.82;;;;;;;;;;4977498;28;20041;-87
2022/02/17 13:08:36;;;;;;;4.05;1.08;;;;;;;;;;4979105;28;20057;-86
2022/02/17 13:11:03;;;;;;;6.70;0.88;;;;;;;;;;4977034;28;20025;-88
2022/02/17 13:13:30;;;;;;;3.92;0.93;;;;;;;;;;4972414;28;20038;-87
2022/02/17 13:15:56;;;;;;;2.80;0.80;;;;;;;;;;4982045;28;20030;-86
2022/02/17 13:18:22;;;;;;;2.20;0.30;;;;;;;;;;4976512;28;20050;-87
2022/02/17 13:20:49;;;;;;;3.88;1.52;;;;;;;;;;4983245;28;20026;-86
2022/02/17 13:23:19;;;;;;;4.30;0.90;;;;;;;;;;4974905;28;20038;-87
2022/02/17 14:15:05;;;;;;;7.32;0.77;;;;;;;;;;3193062;23;20053;-88
2022/02/17 14:17:33;;;;;;;2.45;0.47;;;;;;;;;;4982048;28;20041;-88
2022/02/17 14:20:02;;;;;;;4.70;1.10;;;;;;;;;;4997215;28;20026;-89
2022/02/17 14:22:39;;;;;;;3.15;0.73;;;;;;;;;;4985900;28;20037;-88
2022/02/17 14:25:15;;;;;;;3.90;0.77;;;;;;;;;;4995082;28;20401;-89
2022/02/17 14:27:59;;;;;;;2.95;0.60;;;;;;;;;;4995856;28;20040;-88
2022/02/17 14:30:27;;;;;;;6.88;0.90;;;;;;;;;;4970700;28;20015;-89
2022/02/17 14:33:06;;;;;;;;;;;;;;;;;;;;;
2022/02/17 14:35:33;;;;;;;4.30;0.88;;;;;;;;;;4992862;28;20101;-90
2022/02/17 14:38:02;;;;;;;4.78;0.95;;;;;;;;;;4969312;28;20062;-88
2022/02/17 14:40:30;;;;;;;3.05;0.90;;;;;;;;;;4971803;28;20072;-88
2022/02/17 14:43:00;;;;;;;5.07;0.85;;;;;;;;;;4973790;28;20069;-87
2022/02/17 14:45:26;;;;;;;5.70;0.77;;;;;;;;;;4987525;28;20046;-86
2022/02/17 14:47:53;;;;;;;5.32;0.93;;;;;;;;;;4965841;28;20440;-87
2022/02/17 14:50:27;;;;;;;5.90;1.00;;;;;;;;;;4966808;28;20103;-88
2022/02/17 14:52:54;;;;;;;7.10;1.30;;;;;;;;;;4973323;28;20027;-87
2022/02/17 14:55:23;;;;;;;3.70;1.08;;;;;;;;;;4965575;28;20506;-88
2022/02/17 14:57:49;;;;;;;4.10;1.05;;;;;;;;;;4955605;28;20035;-88
2022/02/17 15:00:26;;;;;;;4.05;0.70;;;;;;;;;;4954215;28;20536;-87
2022/02/17 15:02:54;;;;;;;8.18;1.20;;;;;;;;;;4959256;28;20039;-87
2022/02/17 15:05:21;;;;;;;3.97;0.65;;;;;;;;;;4960598;28;20415;-88
2022/02/17 15:07:47;;;;;;;6.03;1.00;;;;;;;;;;4972689;28;20038;-87
2022/02/17 15:10:13;;;;;;;4.53;0.80;;;;;;;;;;4960198;28;20097;-88
2022/02/17 15:12:43;;;;;;;4.75;0.82;;;;;;;;;;4967552;28;20044;-88
2022/02/17 15:15:09;;;;;;;2.83;0.57;;;;;;;;;;4953369;28;20026;-88
2022/02/17 15:17:36;;;;;;;3.15;0.63;;;;;;;;;;4979842;28;20037;-87
2022/02/17 15:20:20;;;;;;;4.85;0.90;;;;;;;;;;4959803;28;20027;-87
2022/02/17 15:22:52;;;;;;;4.80;0.43;;;;;;;;;;4966426;28;20121;-88
2022/02/17 15:25:29;;;;;;;5.43;0.70;;;;;;;;;;4979429;28;20550;-87
2022/02/17 15:27:57;;;;;;;8.07;1.10;;;;;;;;;;4969638;28;20133;-87
2022/02/17 15:30:24;;;;;;;3.65;0.90;;;;;;;;;;4969551;28;20126;-87
2022/02/17 15:32:51;;;;;;;4.95;0.73;;;;;;;;;;4959796;28;20121;-87
2022/02/17 15:35:17;;;;;;;6.85;0.75;;;;;;;;;;4963827;28;20030;-88
2022/02/17 15:37:44;;;;;;;5.65;0.70;;;;;;;;;;4966011;28;20033;-88
2022/02/17 15:40:12;;;;;;;5.88;1.10;;;;;;;;;;4963673;28;20407;-88
2022/02/17 15:42:47;;;;;;;6.88;0.80;;;;;;;;;;4992133;28;20528;-88
2022/02/17 15:45:15;;;;;;;2.80;0.70;;;;;;;;;;4982411;28;20119;-88
2022/02/17 15:47:45;;;;;;;2.15;0.52;;;;;;;;;;4958648;28;20073;-89
2022/02/17 15:50:21;;;;;;;3.83;0.70;;;;;;;;;;4973409;28;20054;-89
2022/02/17 15:52:58;;;;;;;4.03;0.95;;;;;;;;;;4978376;28;20035;-89
2022/02/17 15:55:27;;;;;;;4.13;0.77;;;;;;;;;;4985668;28;20036;-90
2022/02/17 15:57:59;;;;;;;4.75;0.52;;;;;;;;;;4961953;28;20057;-89
2022/02/17 16:00:28;;;;;;;3.92;0.90;;;;;;;;;;4956969;28;20031;-89
2022/02/17 16:02:58;;;;;;;8.65;1.38;;;;;;;;;;4968940;28;20034;-89
2022/02/17 16:05:25;;;;;;;3.40;1.10;;;;;;;;;;4988895;28;20023;-89
2022/02/17 16:08:07;;;;;;;5.57;0.60;;;;;;;;;;4966716;28;20062;-88
2022/02/17 16:10:41;;;;;;;5.03;0.65;;;;;;;;;;4973947;28;20166;-88
2022/02/17 16:13:26;;;;;;;6.60;1.20;;;;;;;;;;4973782;28;20035;-89
2022/02/17 16:15:55;;;;;;;4.47;0.80;;;;;;;;;;4961539;28;20070;-88
2022/02/17 16:18:55;;;;;;;6.60;1.03;;;;;;;;;;4991479;28;20042;-89
2022/02/17 16:21:41;;;;;;;4.67;0.67;;;;;;;;;;4967165;28;20034;-89
2022/02/17 16:24:13;;;;;;;4.03;1.10;;;;;;;;;;4960153;28;20034;-88
2022/02/17 16:27:01;;;;;;;2.97;0.70;;;;;;;;;;4992729;28;20030;-88
2022/02/17 16:29:29;;;;;;;3.67;0.68;;;;;;;;;;4978894;28;20034;-89
2022/02/17 16:32:01;;;;;;;5.72;0.70;;;;;;;;;;4974107;28;20065;-89
2022/02/17 16:34:31;;;;;;;5.53;0.73;;;;;;;;;;4965469;28;20030;-89
2022/02/17 16:36:57;;;;;;;2.53;0.63;;;;;;;;;;4969035;28;20034;-88
2022/02/17 16:39:30;;;;;;;5.20;0.88;;;;;;;;;;4973617;28;20026;-88
2022/02/17 16:41:57;;;;;;;3.53;0.57;;;;;;;;;;4986937;28;20085;-88
2022/02/17 16:44:24;;;;;;;6.43;0.47;;;;;;;;;;4969913;28;20650;-89
2022/02/17 16:46:50;;;;;;;3.03;0.57;;;;;;;;;;4970007;28;20045;-89
2022/02/17 16:49:20;;;;;;;8.30;0.70;;;;;;;;;;4957643;28;20073;-89
2022/02/17 16:51:50;;;;;;;4.70;1.02;;;;;;;;;;4966314;28;20028;-89
2022/02/17 16:54:20;;;;;;;3.13;0.60;;;;;;;;;;4961132;28;20031;-91
2022/02/17 16:56:52;;;;;;;3.83;0.68;;;;;;;;;;4972658;28;20034;-88
2022/02/17 16:59:21;;;;;;;3.75;0.68;;;;;;;;;;4990902;28;20026;-87
2022/02/17 17:01:49;;;;;;;5.27;0.87;;;;;;;;;;4964463;28;20035;-88
2022/02/17 17:04:19;;;;;;;6.77;0.83;;;;;;;;;;4972040;28;20062;-89
2022/02/17 17:06:45;;;;;;;5.23;1.33;;;;;;;;;;4987873;28;20165;-88
2022/02/17 17:09:15;;;;;;;11.23;1.03;;;;;;;;;;4961624;28;20155;-88
2022/02/17 17:11:41;;;;;;;5.43;1.23;;;;;;;;;;4983168;28;20081;-87
2022/02/17 17:14:08;;;;;;;6.03;1.17;;;;;;;;;;4962464;28;20043;-87
2022/02/17 17:16:34;;;;;;;7.43;1.03;;;;;;;;;;4953914;28;20035;-87
2022/02/17 17:19:06;;;;;;;8.53;0.90;;;;;;;;;;4992434;28;20038;-86
2022/02/17 17:21:32;;;;;;;5.70;0.70;;;;;;;;;;4971942;28;20417;-88
2022/02/17 17:23:58;;;;;;;8.03;1.40;;;;;;;;;;4985506;28;20093;-87
2022/02/17 17:26:30;;;;;;;7.97;1.40;;;;;;;;;;4973469;28;20541;-88
2022/02/17 17:28:56;;;;;;;12.05;1.38;;;;;;;;;;4961588;28;20192;-89
2022/02/17 17:31:22;;;;;;;8.97;0.93;;;;;;;;;;4962160;28;20108;-89
2022/02/17 17:34:02;;;;;;;3.97;0.93;;;;;;;;;;4968746;28;20026;-88
2022/02/17 17:37:12;;;;;;;;;;;;;;;;;;;;;
2022/02/17 17:39:51;;;;;;;4.70;0.75;;;;;;;;;;4975295;28;20102;-90
2022/02/17 17:45:43;;;;;;;7.77;1.47;;;;;;;;;;4979753;28;20057;-89
2022/02/17 17:51:51;;;;;;;5.90;0.80;;;;;;;;;;4943818;28;20049;-90
2022/02/17 17:54:42;;;;;;;3.90;1.10;;;;;;;;;;4961059;28;20025;-88
2022/02/17 18:06:58;;;;;;;3.80;0.70;;;;;;;;;;5232794;23;20042;-88
2022/02/17 18:10:02;;;;;;;;;;;;;;;;;;;;;
2022/02/17 18:12:37;;;;;;;6.25;0.85;;;;;;;;;;4970019;28;20144;-89
2022/02/17 18:15:33;;;;;;;6.43;0.77;;;;;;;;;;4958134;28;20054;-89
2022/02/17 18:24:13;;;;;;;7.17;0.73;;;;;;;;;;4994044;28;20454;-89
2022/02/17 18:27:13;;;;;;;3.77;0.80;;;;;;;;;;4994435;28;20093;-89
2022/02/17 18:36:34;;;;;;;;;;;;;;;;;;;;;
2022/02/17 18:39:31;;;;;;;;;;;;;;;;;;;;;
2022/02/17 18:45:11;;;;;;;6.50;0.90;;;;;;;;;;5060824;23;20061;-88
2022/02/17 18:47:37;;;;;;;6.90;1.07;;;;;;;;;;4971508;28;20034;-88
2022/02/17 18:50:08;;;;;;;7.53;1.23;;;;;;;;;;4980631;28;20106;-88
2022/02/17 18:52:34;;;;;;;4.18;0.90;;;;;;;;;;4973009;28;20023;-88
2022/02/17 18:55:04;;;;;;;4.80;0.80;;;;;;;;;;4955037;28;20407;-87
2022/02/17 18:57:32;;;;;;;6.63;1.17;;;;;;;;;;4961545;28;20448;-89
2022/02/17 18:59:58;;;;;;;8.83;1.77;;;;;;;;;;4959031;28;20125;-88
2022/02/17 19:02:27;;;;;;;8.60;1.30;;;;;;;;;;4957131;28;20039;-88
2022/02/17 19:04:56;;;;;;;10.87;1.30;;;;;;;;;;4959193;28;20038;-88
2022/02/17 19:07:22;;;;;;;10.50;1.57;;;;;;;;;;4961253;28;20047;-87
2022/02/17 19:09:51;;;;;;;6.65;1.05;;;;;;;;;;4970381;28;20030;-86
2022/02/17 19:12:17;;;;;;;11.23;1.67;;;;;;;;;;4968474;28;20058;-87
2022/02/17 19:14:43;;;;;;;9.10;0.87;;;;;;;;;;4958345;28;20023;-86
2022/02/17 19:17:09;;;;;;;5.23;1.23;;;;;;;;;;4959632;28;20035;-87
2022/02/17 19:19:42;;;;;;;6.70;1.20;;;;;;;;;;4966096;28;20050;-87
2022/02/17 19:22:11;;;;;;;2.97;1.20;;;;;;;;;;4974072;28;20055;-87
2022/02/17 19:24:38;;;;;;;7.50;1.50;;;;;;;;;;4962976;28;20051;-87
2022/02/17 19:27:07;;;;;;;10.57;1.07;;;;;;;;;;4967494;28;20117;-87
2022/02/17 19:29:33;;;;;;;5.17;1.17;;;;;;;;;;4996731;23;20023;-88
2022/02/17 19:32:00;;;;;;;5.95;0.73;;;;;;;;;;4990233;28;20093;-88
2022/02/17 19:37:59;;;;;;;7.60;1.20;;;;;;;;;;4979901;28;20057;-92
2022/02/17 20:11:48;;;;;;;8.17;1.47;;;;;;;;;;4171409;26;20490;-90
2022/02/17 20:14:44;;;;;;;7.57;1.33;;;;;;;;;;4986214;28;20027;-90
2022/02/17 20:17:28;;;;;;;6.63;1.23;;;;;;;;;;4970274;28;20089;-90
2022/02/17 20:19:58;;;;;;;9.37;0.93;;;;;;;;;;4988700;28;20046;-90
2022/02/17 20:22:50;;;;;;;9.13;1.43;;;;;;;;;;4981193;28;20025;-90
2022/02/17 20:25:31;;;;;;;5.68;1.40;;;;;;;;;;4966029;28;20026;-90
2022/02/17 20:28:06;;;;;;;9.90;1.03;;;;;;;;;;4976837;28;20061;-90
2022/02/17 20:30:40;;;;;;;8.80;1.30;;;;;;;;;;4974127;28;20038;-90
2022/02/17 20:33:09;;;;;;;6.63;0.90;;;;;;;;;;4974351;28;20470;-90
2022/02/17 20:35:41;;;;;;;5.57;1.70;;;;;;;;;;4974490;28;20109;-90
2022/02/17 20:38:17;;;;;;;;;;;;;;;;;;4971863;28;20034;-90
2022/02/17 20:40:50;;;;;;;7.97;1.27;;;;;;;;;;4974470;28;19910;-90
2022/02/17 20:43:24;;;;;;;7.07;0.90;;;;;;;;;;4976824;28;20076;-89
2022/02/17 20:54:15;;;;;;;7.77;1.43;;;;;;;;;;4994558;28;20097;-90
2022/02/17 20:56:50;;;;;;;8.65;1.00;;;;;;;;;;4990335;28;20030;-90
2022/02/17 20:59:27;;;;;;;8.27;1.70;;;;;;;;;;4979135;28;20033;-90
2022/02/17 21:01:58;;;;;;;10.97;1.57;;;;;;;;;;4978557;28;20030;-89
2022/02/17 21:04:27;;;;;;;8.35;1.50;;;;;;;;;;4978048;28;20030;-90
2022/02/17 21:06:59;;;;;;;6.27;1.10;;;;;;;;;;4987023;28;20049;-90
2022/02/17 21:09:34;;;;;;;6.22;0.88;;;;;;;;;;4971288;28;20125;-89
2022/02/17 21:12:10;;;;;;;9.03;1.30;;;;;;;;;;4984071;28;20038;-90
2022/02/17 21:14:36;;;;;;;5.30;0.97;;;;;;;;;;4972672;28;20038;-90
2022/02/17 21:17:18;;;;;;;8.30;0.90;;;;;;;;;;4984486;28;20042;-90
2022/02/17 21:19:52;;;;;;;8.15;1.10;;;;;;;;;;4976989;28;20038;-89
2022/02/17 21:22:20;;;;;;;10.93;1.10;;;;;;;;;;4984188;28;20065;-90
2022/02/17 21:24:50;;;;;;;8.40;1.50;;;;;;;;;;4983580;28;20030;-90
2022/02/17 21:27:18;;;;;;;9.67;1.33;;;;;;;;;;4974007;28;20033;-88
2022/02/17 21:29:51;;;;;;;9.73;1.43;;;;;;;;;;4972526;28;20141;-89
2022/02/17 21:32:27;;;;;;;6.17;1.40;;;;;;;;;;4974582;28;20514;-90
2022/02/17 21:34:56;;;;;;;7.23;1.00;;;;;;;;;;4974678;28;20088;-90
2022/02/17 21:37:27;;;;;;;7.30;1.77;;;;;;;;;;4976614;28;20041;-88
2022/02/17 21:39:56;;;;;;;6.30;1.00;;;;;;;;;;4993388;28;20038;-89
2022/02/17 21:42:31;;;;;;;9.67;1.00;;;;;;;;;;4989592;28;20117;-89
2022/02/17 21:45:08;;;;;;;5.33;0.60;;;;;;;;;;4981969;28;20605;-90
2022/02/17 21:48:00;;;;;;;10.60;1.77;;;;;;;;;;4980173;28;20140;-90
2022/02/17 21:50:35;;;;;;;7.57;0.80;;;;;;;;;;4963073;28;20118;-89
2022/02/17 21:53:04;;;;;;;7.17;1.40;;;;;;;;;;4954306;28;20441;-89
2022/02/17 21:55:38;;;;;;;4.43;0.80;;;;;;;;;;4996014;28;20050;-89
2022/02/17 21:58:05;;;;;;;11.00;1.70;;;;;;;;;;4988414;28;20577;-89
2022/02/17 22:00:49;;;;;;;9.23;1.10;;;;;;;;;;4992939;28;20045;-89
2022/02/17 22:03:18;;;;;;;7.73;1.13;;;;;;;;;;4980107;28;20092;-89
2022/02/17 22:05:51;;;;;;;8.00;1.73;;;;;;;;;;4979394;28;20058;-89
2022/02/17 22:08:25;;;;;;;11.50;1.07;;;;;;;;;;4979900;28;20112;-88
2022/02/17 22:10:56;;;;;;;7.97;1.50;;;;;;;;;;4977733;28;20026;-89
2022/02/17 22:13:23;;;;;;;6.40;1.15;;;;;;;;;;4983965;28;20606;-89
2022/02/17 22:15:50;;;;;;;7.77;1.20;;;;;;;;;;4979498;28;20035;-89
2022/02/17 22:18:19;;;;;;;8.13;1.27;;;;;;;;;;4989584;28;20383;-89